createdAt,value
2022-12-01T00:01:39.754Z,34.77
2022-12-01T00:04:08.153Z,40.37
2022-12-01T00:06:36.628Z,30.63
2022-12-01T00:09:22.903Z,35.33
2022-12-01T00:11:52.680Z,36.43
2022-12-01T00:14:21.120Z,31.43
2022-12-01T00:16:49.529Z,30.20
2022-12-01T00:19:18.389Z,28.20
2022-12-01T00:21:47.795Z,29.60
2022-12-01T00:24:16.297Z,28.47
2022-12-01T00:26:44.817Z,27.83
2022-12-01T00:29:14.624Z,25.67
2022-12-01T00:31:43.153Z,27.27
2022-12-01T00:34:16.154Z,25.73
2022-12-01T00:36:44.780Z,31.23
2022-12-01T00:39:13.244Z,30.90
2022-12-01T00:41:41.636Z,33.93
2022-12-01T00:44:10.267Z,31.00
2022-12-01T00:46:40.025Z,31.13
2022-12-01T00:49:08.502Z,28.53
2022-12-01T00:51:36.925Z,28.07
2022-12-01T00:54:05.494Z,26.63
2022-12-01T00:56:33.915Z,29.17
2022-12-01T00:59:02.299Z,29.77
2022-12-01T01:01:30.723Z,29.13
2022-12-01T01:04:01.033Z,27.40
2022-12-01T01:06:29.664Z,26.10
2022-12-01T01:08:58.095Z,25.27
2022-12-01T01:11:26.577Z,23.87
2022-12-01T01:13:55.067Z,26.83
2022-12-01T01:16:24.148Z,30.10
2022-12-01T01:18:52.574Z,27.60
2022-12-01T01:21:23.066Z,28.23
2022-12-01T01:23:51.868Z,23.80
2022-12-01T01:26:21.730Z,25.03
2022-12-01T01:28:50.693Z,23.17
2022-12-01T01:31:20.817Z,27.30
2022-12-01T01:33:49.467Z,26.77
2022-12-01T01:36:18.272Z,28.73
2022-12-01T01:38:48.337Z,32.77
2022-12-01T01:41:16.788Z,29.80
2022-12-01T01:43:47.326Z,27.83
2022-12-01T01:46:16.912Z,22.53
2022-12-01T01:48:47.789Z,26.33
2022-12-01T01:51:16.991Z,22.97
2022-12-01T01:53:47.350Z,26.47
2022-12-01T01:56:17.202Z,25.60
2022-12-01T01:58:46.065Z,28.03
2022-12-01T02:01:14.670Z,27.97
2022-12-01T02:03:43.440Z,31.07
2022-12-01T02:06:12.045Z,25.37
2022-12-01T02:08:40.553Z,27.73
2022-12-01T02:11:26.834Z,28.47
2022-12-01T02:14:02.367Z,29.13
2022-12-01T02:16:35.712Z,30.33
2022-12-01T02:19:11.957Z,26.63
2022-12-01T02:21:49.977Z,24.20
2022-12-01T02:24:37.260Z,26.80
2022-12-01T02:27:09.614Z,26.13
2022-12-01T02:29:43.774Z,26.73
2022-12-01T02:32:16.814Z,27.10
2022-12-01T02:34:48.386Z,26.30
2022-12-01T02:37:21.662Z,27.30
2022-12-01T02:39:54.377Z,23.47
2022-12-01T02:42:40.982Z,26.97
2022-12-01T02:45:11.887Z,25.40
2022-12-01T02:47:42.165Z,22.30
2022-12-01T02:50:12.182Z,25.17
2022-12-01T02:52:42.037Z,23.63
2022-12-01T02:55:11.130Z,23.73
2022-12-01T02:57:39.493Z,26.17
2022-12-01T03:00:13.490Z,23.00
2022-12-01T03:02:50.135Z,25.37
2022-12-01T03:05:21.445Z,22.13
2022-12-01T03:07:58.721Z,26.57
2022-12-01T03:10:29.139Z,23.80
2022-12-01T03:13:03.452Z,22.47
2022-12-01T03:15:35.770Z,22.37
2022-12-01T03:18:09.659Z,23.50
2022-12-01T03:20:41.408Z,23.00
2022-12-01T03:23:11.461Z,22.10
2022-12-01T03:25:41.889Z,22.27
2022-12-01T03:28:21.213Z,18.60
2022-12-01T03:30:52.684Z,19.57
2022-12-01T03:33:26.235Z,20.27
2022-12-01T03:35:57.480Z,20.53
2022-12-01T03:38:26.706Z,23.73
2022-12-01T03:40:58.685Z,24.40
2022-12-01T03:43:29.809Z,24.53
2022-12-01T03:46:01.415Z,25.77
2022-12-01T03:48:31.427Z,23.30
2022-12-01T03:51:06.635Z,23.13
2022-12-01T03:53:36.440Z,25.30
2022-12-01T03:56:06.798Z,25.10
2022-12-01T03:58:37.095Z,24.53
2022-12-01T04:01:06.038Z,28.67
2022-12-01T04:03:35.885Z,31.70
2022-12-01T04:06:04.352Z,33.57
2022-12-01T04:08:33.882Z,31.43
2022-12-01T04:11:22.342Z,26.90
2022-12-01T04:13:49.746Z,45.80
2022-12-01T04:16:18.216Z,29.20
2022-12-01T04:18:48.141Z,40.60
2022-12-01T04:21:16.599Z,45.87
2022-12-01T04:24:03.561Z,36.80
2022-12-01T04:26:33.261Z,39.20
2022-12-01T04:29:01.768Z,31.83
2022-12-01T04:31:30.533Z,37.90
2022-12-01T04:34:01.177Z,37.03
2022-12-01T04:36:31.757Z,34.00
2022-12-01T04:39:00.209Z,33.57
2022-12-01T04:41:28.630Z,33.87
2022-12-01T04:43:57.434Z,39.93
2022-12-01T04:46:26.554Z,34.10
2022-12-01T04:48:54.964Z,33.53
2022-12-01T04:51:24.788Z,36.07
2022-12-01T04:53:53.187Z,38.47
2022-12-01T04:56:21.634Z,34.80
2022-12-01T04:58:50.242Z,32.87
2022-12-01T05:01:19.646Z,33.10
2022-12-01T05:03:50.569Z,31.93
2022-12-01T05:06:20.623Z,33.60
2022-12-01T05:08:50.910Z,42.83
2022-12-01T05:11:19.736Z,31.53
2022-12-01T05:13:48.824Z,29.43
2022-12-01T05:16:18.417Z,33.17
2022-12-01T05:18:49.736Z,35.43
2022-12-01T05:21:17.253Z,27.90
2022-12-01T05:23:45.767Z,36.50
2022-12-01T05:26:15.544Z,36.60
2022-12-01T05:28:43.950Z,33.67
2022-12-01T05:31:12.393Z,29.07
2022-12-01T05:33:41.000Z,30.97
2022-12-01T05:36:09.796Z,30.23
2022-12-01T05:38:38.243Z,35.43
2022-12-01T05:41:06.983Z,28.53
2022-12-01T05:43:36.737Z,29.07
2022-12-01T05:46:05.524Z,30.83
2022-12-01T05:48:34.005Z,27.90
2022-12-01T05:51:02.470Z,36.70
2022-12-01T05:53:31.213Z,29.33
2022-12-01T05:55:59.698Z,26.03
2022-12-01T05:58:28.066Z,32.17
2022-12-01T06:00:58.103Z,26.00
2022-12-01T06:03:26.632Z,32.67
2022-12-01T06:05:55.114Z,28.30
2022-12-01T06:08:23.610Z,27.80
2022-12-01T06:10:52.127Z,26.47
2022-12-01T06:13:20.538Z,25.67
2022-12-01T06:15:58.633Z,29.43
2022-12-01T06:18:27.921Z,25.87
2022-12-01T06:20:56.340Z,24.00
2022-12-01T06:23:29.985Z,25.60
2022-12-01T06:25:58.926Z,21.00
2022-12-01T06:28:27.367Z,24.53
2022-12-01T06:31:02.557Z,25.33
2022-12-01T06:33:32.965Z,23.07
2022-12-01T06:36:01.857Z,24.23
2022-12-01T06:38:32.409Z,22.43
2022-12-01T06:41:00.985Z,39.30
2022-12-01T06:43:29.543Z,30.43
2022-12-01T06:46:02.164Z,27.70
2022-12-01T06:48:31.054Z,23.57
2022-12-01T06:51:01.324Z,22.30
2022-12-01T06:53:30.041Z,24.67
2022-12-01T06:56:01.969Z,25.23
2022-12-01T06:58:30.781Z,30.67
2022-12-01T07:00:59.855Z,23.60
2022-12-01T07:03:28.618Z,25.23
2022-12-01T07:05:58.910Z,23.97
2022-12-01T07:08:29.065Z,26.10
2022-12-01T07:11:01.110Z,24.97
2022-12-01T07:13:33.411Z,22.83
2022-12-01T07:16:03.165Z,23.23
2022-12-01T07:18:32.080Z,23.37
2022-12-01T07:21:01.644Z,21.80
2022-12-01T07:23:31.791Z,21.57
2022-12-01T07:26:00.701Z,21.93
2022-12-01T07:28:29.158Z,20.87
2022-12-01T07:31:02.615Z,25.47
2022-12-01T07:33:31.246Z,23.57
2022-12-01T07:35:59.772Z,24.27
2022-12-01T07:38:29.766Z,20.90
2022-12-01T07:41:02.835Z,20.73
2022-12-01T07:43:31.806Z,23.17
2022-12-01T07:46:06.093Z,21.43
2022-12-01T07:48:34.630Z,23.53
2022-12-01T07:51:03.229Z,27.00
2022-12-01T07:53:31.678Z,23.90
2022-12-01T07:56:05.670Z,22.00
2022-12-01T07:58:36.992Z,21.27
2022-12-01T08:01:08.032Z,20.10
2022-12-01T08:03:36.568Z,19.80
2022-12-01T08:06:05.647Z,22.37
2022-12-01T08:08:34.435Z,21.53
2022-12-01T08:11:04.895Z,22.00
2022-12-01T08:13:33.327Z,22.37
2022-12-01T08:16:04.566Z,22.97
2022-12-01T08:18:33.020Z,21.47
2022-12-01T08:21:01.375Z,21.20
2022-12-01T08:23:29.754Z,23.33
2022-12-01T08:25:58.149Z,37.63
2022-12-01T08:28:28.178Z,30.50
2022-12-01T08:30:56.764Z,27.90
2022-12-01T08:33:25.765Z,24.67
2022-12-01T08:35:54.324Z,25.53
2022-12-01T08:38:22.736Z,26.90
2022-12-01T08:40:51.288Z,26.97
2022-12-01T08:43:49.531Z,25.90
2022-12-01T08:46:09.828Z,26.60
2022-12-01T08:48:38.542Z,24.97
2022-12-01T08:51:07.630Z,27.53
2022-12-01T08:53:40.169Z,26.87
2022-12-01T08:56:16.356Z,26.67
2022-12-01T08:58:44.978Z,31.07
2022-12-01T09:01:15.652Z,31.67
2022-12-01T09:03:44.445Z,33.70
2022-12-01T09:06:14.076Z,31.03
2022-12-01T09:08:42.625Z,32.63
2022-12-01T09:11:12.874Z,32.57
2022-12-01T09:13:41.678Z,30.77
2022-12-01T09:16:12.202Z,28.23
2022-12-01T09:18:42.161Z,34.23
2022-12-01T09:21:14.059Z,33.33
2022-12-01T09:23:42.587Z,32.63
2022-12-01T09:26:13.819Z,25.77
2022-12-01T09:28:42.746Z,29.10
2022-12-01T09:31:13.600Z,27.10
2022-12-01T09:33:43.484Z,29.80
2022-12-01T09:36:12.465Z,27.97
2022-12-01T09:38:41.192Z,28.63
2022-12-01T09:41:11.930Z,29.37
2022-12-01T09:43:42.050Z,33.53
2022-12-01T09:46:13.816Z,26.60
2022-12-01T09:48:44.647Z,29.70
2022-12-01T09:51:15.241Z,23.50
2022-12-01T09:53:44.143Z,31.47
2022-12-01T09:56:19.420Z,23.33
2022-12-01T09:58:48.843Z,27.50
2022-12-01T10:01:24.458Z,28.90
2022-12-01T10:03:59.902Z,25.83
2022-12-01T10:06:31.070Z,27.00
2022-12-01T10:09:14.370Z,26.30
2022-12-01T10:11:44.609Z,27.30
2022-12-01T10:14:19.764Z,25.30
2022-12-01T10:16:52.345Z,27.47
2022-12-01T10:19:25.436Z,29.53
2022-12-01T10:22:01.383Z,25.10
2022-12-01T10:24:36.905Z,27.73
2022-12-01T10:27:25.968Z,29.87
2022-12-01T10:29:59.932Z,31.97
2022-12-01T10:32:32.752Z,37.30
2022-12-01T10:35:02.640Z,35.00
2022-12-01T10:37:32.646Z,35.60
2022-12-01T10:40:01.385Z,37.77
2022-12-01T10:42:31.062Z,34.53
2022-12-01T10:45:01.810Z,34.30
2022-12-01T10:47:31.867Z,43.17
2022-12-01T10:50:01.734Z,37.70
2022-12-01T10:52:35.072Z,45.33
2022-12-01T10:55:04.340Z,41.80
2022-12-01T10:57:33.178Z,40.00
2022-12-01T11:00:02.783Z,37.87
2022-12-01T11:02:32.707Z,39.30
2022-12-01T11:05:03.880Z,36.37
2022-12-01T11:07:35.522Z,40.67
2022-12-01T11:10:06.931Z,41.00
2022-12-01T11:12:35.805Z,44.60
2022-12-01T11:15:04.290Z,44.93
2022-12-01T11:17:33.748Z,38.77
2022-12-01T11:20:18.845Z,42.23
2022-12-01T11:22:47.357Z,37.23
2022-12-01T11:25:20.771Z,42.77
2022-12-01T11:27:50.833Z,44.47
2022-12-01T11:30:22.597Z,42.03
2022-12-01T11:32:54.343Z,35.93
2022-12-01T11:35:25.413Z,38.93
2022-12-01T11:38:27.888Z,38.23
2022-12-01T11:40:48.426Z,41.27
2022-12-01T11:43:23.624Z,41.13
2022-12-01T11:45:52.339Z,39.07
2022-12-01T11:48:26.045Z,38.63
2022-12-01T11:51:09.733Z,36.40
2022-12-01T11:53:39.138Z,35.63
2022-12-01T11:56:18.264Z,38.97
2022-12-01T11:58:48.774Z,43.97
2022-12-01T12:01:22.101Z,40.40
2022-12-01T12:03:57.109Z,56.13
2022-12-01T12:06:44.221Z,47.27
2022-12-01T12:09:26.447Z,46.43
2022-12-01T12:11:57.231Z,49.40
2022-12-01T12:14:30.368Z,47.57
2022-12-01T12:17:19.446Z,48.50
2022-12-01T12:20:09.767Z,48.53
2022-12-01T12:22:42.635Z,46.70
2022-12-01T12:25:22.895Z,43.20
2022-12-01T12:27:55.702Z,43.07
2022-12-01T12:30:26.411Z,42.80
2022-12-01T12:33:08.884Z,44.10
2022-12-01T12:35:41.007Z,37.67
2022-12-01T12:38:24.624Z,45.03
2022-12-01T12:40:55.638Z,35.13
2022-12-01T12:43:26.858Z,38.97
2022-12-01T12:46:01.253Z,39.57
2022-12-01T12:48:50.900Z,40.77
2022-12-01T12:51:30.431Z,44.00
2022-12-01T12:54:01.922Z,42.53
2022-12-01T12:56:32.157Z,39.77
2022-12-01T12:59:03.362Z,43.93
2022-12-01T13:01:34.461Z,40.17
2022-12-01T13:04:05.951Z,41.40
2022-12-01T13:06:38.333Z,39.20
2022-12-01T13:09:11.624Z,39.13
2022-12-01T13:11:45.742Z,42.87
2022-12-01T13:14:17.915Z,37.63
2022-12-01T13:16:48.303Z,37.60
2022-12-01T13:19:18.454Z,33.97
2022-12-01T13:21:47.724Z,38.63
2022-12-01T13:24:23.405Z,42.17
2022-12-01T13:26:54.780Z,39.50
2022-12-01T13:29:24.584Z,37.53
2022-12-01T13:31:54.453Z,35.77
2022-12-01T13:34:26.245Z,37.10
2022-12-01T13:36:55.591Z,31.97
2022-12-01T13:39:26.538Z,36.40
2022-12-01T13:42:02.385Z,38.87
2022-12-01T13:44:32.784Z,36.93
2022-12-01T13:47:04.609Z,40.63
2022-12-01T13:49:51.106Z,33.83
2022-12-01T13:52:28.554Z,35.00
2022-12-01T13:55:23.575Z,38.23
2022-12-01T13:58:14.109Z,41.97
2022-12-01T14:00:43.098Z,37.07
2022-12-01T14:03:30.442Z,32.50
2022-12-01T14:06:07.725Z,35.63
2022-12-01T14:08:37.713Z,39.17
2022-12-01T14:11:08.831Z,34.23
2022-12-01T14:13:46.015Z,36.70
2022-12-01T14:16:14.648Z,40.70
2022-12-01T14:18:44.635Z,32.93
2022-12-01T14:21:14.700Z,35.80
2022-12-01T14:24:00.468Z,33.43
2022-12-01T14:26:31.558Z,33.17
2022-12-01T14:29:17.713Z,32.43
2022-12-01T14:32:06.988Z,35.67
2022-12-01T14:34:36.007Z,33.93
2022-12-01T14:37:07.043Z,35.63
2022-12-01T14:39:36.821Z,35.63
2022-12-01T14:42:08.962Z,35.23
2022-12-01T14:44:38.911Z,35.73
2022-12-01T14:47:10.333Z,36.73
2022-12-01T14:49:41.446Z,33.90
2022-12-01T14:52:16.609Z,33.67
2022-12-01T14:54:45.839Z,32.57
2022-12-01T14:57:18.162Z,37.50
2022-12-01T14:59:46.954Z,34.23
2022-12-01T15:02:15.736Z,36.50
2022-12-01T15:05:02.507Z,37.37
2022-12-01T15:07:31.607Z,33.63
2022-12-01T15:10:01.964Z,39.63
2022-12-01T15:12:32.268Z,33.40
2022-12-01T15:15:00.955Z,35.60
2022-12-01T15:17:31.291Z,35.13
2022-12-01T15:20:00.418Z,39.50
2022-12-01T15:22:31.317Z,34.23
2022-12-01T15:25:07.688Z,37.60
2022-12-01T15:27:37.543Z,37.47
2022-12-01T15:30:06.513Z,38.73
2022-12-01T15:32:39.043Z,42.97
2022-12-01T15:35:08.956Z,56.43
2022-12-01T15:37:44.435Z,43.70
2022-12-01T15:43:06.446Z,38.60
2022-12-01T15:45:44.224Z,33.30
2022-12-01T15:48:17.828Z,43.20
2022-12-01T15:50:48.096Z,41.57
2022-12-01T15:53:23.320Z,43.33
2022-12-01T15:55:58.433Z,40.77
2022-12-01T15:58:30.236Z,42.00
2022-12-01T16:01:00.634Z,53.50
2022-12-01T16:03:29.495Z,56.43
2022-12-01T16:05:58.302Z,45.93
2022-12-01T16:08:28.283Z,49.03
2022-12-01T16:11:13.195Z,40.87
2022-12-01T16:13:46.245Z,38.83
2022-12-01T16:16:29.550Z,52.23
2022-12-01T16:18:59.150Z,51.83
2022-12-01T16:21:27.947Z,66.77
2022-12-01T16:24:03.190Z,45.63
2022-12-01T16:26:32.081Z,46.23
2022-12-01T16:29:02.115Z,44.20
2022-12-01T16:31:30.590Z,54.47
2022-12-01T16:34:13.947Z,42.33
2022-12-01T16:36:51.698Z,46.90
2022-12-01T16:39:20.190Z,48.57
2022-12-01T16:41:48.642Z,46.23
2022-12-01T16:44:28.639Z,42.17
2022-12-01T16:46:57.729Z,46.60
2022-12-01T16:49:26.228Z,44.10
2022-12-01T16:51:56.514Z,53.77
2022-12-01T16:54:25.930Z,46.63
2022-12-01T16:56:54.401Z,46.47
2022-12-01T16:59:24.891Z,98.50
2022-12-01T17:01:53.537Z,52.60
2022-12-01T17:04:21.982Z,45.30
2022-12-01T17:06:50.471Z,48.83
2022-12-01T17:09:18.948Z,49.23
2022-12-01T17:11:47.473Z,44.20
2022-12-01T17:14:15.828Z,48.80
2022-12-01T17:16:45.572Z,44.60
2022-12-01T17:19:13.986Z,50.73
2022-12-01T17:21:42.604Z,47.33
2022-12-01T17:24:11.042Z,54.60
2022-12-01T17:26:39.509Z,47.27
2022-12-01T17:29:07.980Z,48.43
2022-12-01T17:31:36.421Z,58.57
2022-12-01T17:34:06.229Z,45.03
2022-12-01T17:36:34.747Z,49.97
2022-12-01T17:39:03.127Z,46.03
2022-12-01T17:41:35.730Z,49.87
2022-12-01T17:44:04.795Z,49.00
2022-12-01T17:46:33.658Z,51.83
2022-12-01T17:49:08.490Z,64.20
2022-12-01T17:51:38.542Z,52.23
2022-12-01T17:54:07.225Z,47.77
2022-12-01T17:56:35.977Z,61.23
2022-12-01T17:59:04.530Z,46.03
2022-12-01T18:01:33.060Z,58.87
2022-12-01T18:04:01.585Z,42.77
2022-12-01T18:06:30.061Z,48.80
2022-12-01T18:09:00.914Z,51.87
2022-12-01T18:11:29.462Z,48.83
2022-12-01T18:13:58.457Z,43.43
2022-12-01T18:16:28.147Z,53.40
2022-12-01T18:18:58.644Z,48.10
2022-12-01T18:21:28.237Z,64.30
2022-12-01T18:23:58.140Z,50.57
2022-12-01T18:26:28.569Z,45.53
2022-12-01T18:28:57.404Z,45.20
2022-12-01T18:31:26.439Z,44.63
2022-12-01T18:33:54.997Z,45.73
2022-12-01T18:36:24.298Z,46.07
2022-12-01T18:38:54.534Z,45.27
2022-12-01T18:41:23.051Z,42.77
2022-12-01T18:43:53.000Z,37.43
2022-12-01T18:46:22.170Z,48.27
2022-12-01T18:48:51.801Z,50.27
2022-12-01T18:51:20.639Z,40.40
2022-12-01T18:53:49.272Z,45.17
2022-12-01T18:56:17.786Z,44.57
2022-12-01T18:58:46.243Z,40.03
2022-12-01T19:01:22.875Z,42.30
2022-12-01T19:03:51.559Z,45.53
2022-12-01T19:06:20.144Z,61.63
2022-12-01T19:08:48.796Z,61.33
2022-12-01T19:11:17.302Z,55.93
2022-12-01T19:13:45.829Z,45.93
2022-12-01T19:16:15.079Z,46.30
2022-12-01T19:18:44.948Z,47.23
2022-12-01T19:21:15.386Z,50.07
2022-12-01T19:23:44.111Z,52.87
2022-12-01T19:26:13.510Z,51.97
2022-12-01T19:28:45.318Z,56.83
2022-12-01T19:31:14.721Z,48.73
2022-12-01T19:33:43.210Z,66.40
2022-12-01T19:36:14.381Z,51.07
2022-12-01T19:38:44.521Z,45.70
2022-12-01T19:41:13.502Z,51.57
2022-12-01T19:43:42.190Z,50.50
2022-12-01T19:46:11.944Z,47.53
2022-12-01T19:48:40.810Z,53.40
2022-12-01T19:51:09.658Z,47.27
2022-12-01T19:53:39.507Z,48.33
2022-12-01T19:56:08.218Z,46.57
2022-12-01T19:58:37.701Z,49.60
2022-12-01T20:01:06.779Z,51.83
2022-12-01T20:03:35.413Z,46.27
2022-12-01T20:06:04.803Z,49.70
2022-12-01T20:08:35.881Z,48.53
2022-12-01T20:11:06.544Z,50.20
2022-12-01T20:13:35.558Z,101.73
2022-12-01T20:16:04.861Z,63.33
2022-12-01T20:18:33.605Z,57.33
2022-12-01T20:21:05.960Z,59.23
2022-12-01T20:23:34.750Z,56.07
2022-12-01T20:26:03.614Z,54.73
2022-12-01T20:28:33.834Z,60.33
2022-12-01T20:31:02.350Z,62.23
2022-12-01T20:33:30.812Z,58.53
2022-12-01T20:35:59.222Z,51.57
2022-12-01T20:38:28.014Z,49.57
2022-12-01T20:40:56.540Z,47.57
2022-12-01T20:43:24.961Z,44.50
2022-12-01T20:45:54.968Z,47.80
2022-12-01T20:48:23.506Z,48.73
2022-12-01T20:50:52.072Z,54.67
2022-12-01T20:53:20.524Z,41.63
2022-12-01T20:55:49.172Z,42.93
2022-12-01T20:58:17.633Z,48.90
2022-12-01T21:00:46.396Z,44.17
2022-12-01T21:03:16.567Z,41.93
2022-12-01T21:05:45.354Z,45.77
2022-12-01T21:08:15.073Z,41.83
2022-12-01T21:10:44.915Z,43.83
2022-12-01T21:13:35.508Z,44.80
2022-12-01T21:16:07.125Z,44.33
2022-12-01T21:18:43.914Z,48.63
2022-12-01T21:21:19.049Z,51.70
2022-12-01T21:23:47.595Z,49.00
2022-12-01T21:26:16.487Z,41.60
2022-12-01T21:28:45.006Z,49.93
2022-12-01T21:31:15.096Z,46.40
2022-12-01T21:33:45.236Z,53.23
2022-12-01T21:36:16.820Z,77.13
2022-12-01T21:38:45.782Z,79.67
2022-12-01T21:41:17.949Z,63.20
2022-12-01T21:43:46.415Z,61.00
2022-12-01T21:46:16.231Z,55.50
2022-12-01T21:48:47.232Z,53.23
2022-12-01T21:51:18.156Z,57.43
2022-12-01T21:53:46.787Z,51.23
2022-12-01T21:56:18.179Z,59.83
2022-12-01T21:58:46.565Z,54.00
2022-12-01T22:01:18.094Z,63.43
2022-12-01T22:03:48.292Z,58.30
2022-12-01T22:06:31.572Z,59.47
2022-12-01T22:09:02.884Z,65.40
2022-12-01T22:11:32.041Z,63.73
2022-12-01T22:14:02.615Z,48.93
2022-12-01T22:16:31.710Z,58.40
2022-12-01T22:19:03.085Z,47.90
2022-12-01T22:21:36.159Z,52.40
2022-12-01T22:24:20.506Z,53.43
2022-12-01T22:26:49.954Z,48.90
2022-12-01T22:29:23.054Z,47.17
2022-12-01T22:31:51.529Z,42.80
2022-12-01T22:34:22.049Z,42.10
2022-12-01T22:36:51.302Z,39.70
2022-12-01T22:39:27.203Z,39.17
2022-12-01T22:41:59.113Z,41.67
2022-12-01T22:44:28.831Z,42.23
2022-12-01T22:46:58.882Z,41.67
2022-12-01T22:49:28.881Z,42.17
2022-12-01T22:51:58.945Z,43.63
2022-12-01T22:54:32.001Z,43.50
2022-12-01T22:57:15.332Z,50.73
2022-12-01T22:59:44.802Z,45.00
2022-12-01T23:02:20.434Z,46.00
2022-12-01T23:04:51.401Z,40.87
2022-12-01T23:07:33.693Z,49.47
2022-12-01T23:10:07.370Z,40.13
2022-12-01T23:12:36.580Z,44.90
2022-12-01T23:15:16.619Z,47.40
2022-12-01T23:17:45.107Z,50.97
2022-12-01T23:20:24.698Z,45.63
2022-12-01T23:22:55.520Z,43.87
2022-12-01T23:25:24.872Z,50.47
2022-12-01T23:27:54.234Z,56.03
2022-12-01T23:30:23.694Z,58.13
2022-12-01T23:32:57.763Z,47.50
2022-12-01T23:35:27.558Z,50.47
2022-12-01T23:37:55.980Z,53.10
2022-12-01T23:40:28.171Z,50.07
2022-12-01T23:42:56.679Z,45.03
2022-12-01T23:45:26.634Z,56.67
2022-12-01T23:47:56.475Z,55.07
2022-12-01T23:50:26.573Z,54.27
2022-12-01T23:52:57.748Z,62.20
2022-12-01T23:55:28.195Z,56.00
2022-12-01T23:57:57.154Z,58.03
